Time;durP1;ratioP1;P1;durP2;ratioP2;P2;SDS_P1;SDS_P2;PMS_P1;PMS_P2;Temp;Humidity;BMP_temperature;BMP_pressure;BME280_temperature;BME280_humidity;BME280_pressure;Samples;Min_cycle;Max_cycle;Signal;HPM_P1;HPM_P2
2022/10/03 00:02:28;;;;;;;;;;;18.60;72.30;;;;;;5016993;27;90035;-48
2022/10/03 00:05:12;;;;;;;;;;;18.60;72.40;;;;;;5025079;27;90622;-52
2022/10/03 00:08:01;;;;;;;;;;;18.60;72.50;;;;;;5012733;27;93739;-51
2022/10/03 00:10:29;;;;;;;;;;;18.60;72.40;;;;;;4980137;27;96610;-49
2022/10/03 00:13:02;;;;;;;;;;;18.50;72.40;;;;;;5030380;27;90973;-48
2022/10/03 00:15:35;;;;;;;;;;;18.60;72.40;;;;;;5039472;27;90153;-48
2022/10/03 00:18:18;;;;;;;;;;;18.60;72.50;;;;;;5021220;27;91077;-51
2022/10/03 00:20:52;;;;;;;;;;;18.50;72.40;;;;;;5024178;27;89943;-48
2022/10/03 00:23:22;;;;;;;;;;;18.50;72.30;;;;;;5023047;27;90023;-48
2022/10/03 00:25:54;;;;;;;;;;;18.50;72.40;;;;;;5027266;27;89998;-52
2022/10/03 00:28:25;;;;;;;;;;;18.50;72.50;;;;;;5032987;27;90434;-47
2022/10/03 00:30:57;;;;;;;;;;;18.50;72.30;;;;;;5027181;27;89587;-52
2022/10/03 00:33:22;;;;;;;;;;;18.50;72.30;;;;;;5033030;27;90615;-52
2022/10/03 00:35:48;;;;;;;;;;;18.50;72.20;;;;;;5017703;27;89786;-52
2022/10/03 00:38:16;;;;;;;;;;;18.40;72.20;;;;;;5016882;27;91676;-51
2022/10/03 00:40:55;;;;;;;;;;;18.50;72.00;;;;;;5019459;27;93068;-50
2022/10/03 00:43:20;;;;;;;;;;;18.40;72.10;;;;;;5030879;27;91295;-49
2022/10/03 00:45:55;;;;;;;;;;;18.40;72.10;;;;;;5024368;27;90100;-49
2022/10/03 00:48:39;;;;;;;;;;;18.40;72.10;;;;;;5019138;27;90060;-51
2022/10/03 00:51:19;;;;;;;;;;;18.40;72.20;;;;;;5015745;27;91647;-49
2022/10/03 00:54:08;;;;;;;;;;;18.40;72.10;;;;;;5023768;27;89734;-50
2022/10/03 00:56:35;;;;;;;;;;;18.40;72.10;;;;;;5021424;27;88961;-46
2022/10/03 00:59:03;;;;;;;;;;;18.40;72.20;;;;;;5026365;27;90869;-50
2022/10/03 01:01:29;;;;;;;;;;;18.30;72.20;;;;;;5016178;27;91703;-51
2022/10/03 01:03:54;;;;;;;;;;;18.30;72.10;;;;;;5024033;27;91783;-51
2022/10/03 01:06:20;;;;;;;;;;;18.30;72.30;;;;;;5026566;27;89515;-47
2022/10/03 01:08:58;;;;;;;;;;;18.30;72.00;;;;;;5026930;27;89964;-47
2022/10/03 01:11:35;;;;;;;;;;;18.30;72.10;;;;;;5030954;27;95646;-50
2022/10/03 01:14:16;;;;;;;;;;;18.30;72.00;;;;;;5020041;27;90425;-51
2022/10/03 01:16:47;;;;;;;;;;;18.30;71.90;;;;;;5026856;27;89856;-50
2022/10/03 01:19:12;;;;;;;;;;;18.30;72.10;;;;;;5015882;27;90438;-47
2022/10/03 01:21:46;;;;;;;;;;;18.30;72.10;;;;;;5026300;27;89864;-51
2022/10/03 01:24:25;;;;;;;;;;;18.30;71.90;;;;;;5019816;27;91240;-48
2022/10/03 01:26:53;;;;;;;;;;;18.20;71.80;;;;;;5020373;27;92075;-49
2022/10/03 01:32:22;;;;;;;;;;;18.20;72.20;;;;;;5024757;27;90140;-50
2022/10/03 01:34:53;;;;;;;;;;;18.20;72.00;;;;;;5020959;27;90180;-49
2022/10/03 01:37:21;;;;;;;;;;;18.20;72.10;;;;;;5027463;27;90197;-50
2022/10/03 01:39:50;;;;;;;;;;;18.20;72.10;;;;;;5028719;27;90879;-50
2022/10/03 01:42:37;;;;;;;;;;;18.20;72.00;;;;;;5025539;27;92969;-50
2022/10/03 01:45:12;;;;;;;;;;;18.20;71.80;;;;;;5023571;27;89932;-49
2022/10/03 01:47:53;;;;;;;;;;;18.20;72.00;;;;;;5016592;27;97065;-47
2022/10/03 01:50:28;;;;;;;;;;;18.10;71.80;;;;;;5026100;27;90035;-49
2022/10/03 01:52:57;;;;;;;;;;;18.10;71.70;;;;;;5025616;27;89938;-47
2022/10/03 01:55:35;;;;;;;;;;;18.10;71.70;;;;;;5032899;27;91393;-48
2022/10/03 01:58:04;;;;;;;;;;;18.10;71.80;;;;;;5032944;27;90370;-48
2022/10/03 02:00:44;;;;;;;;;;;18.10;71.70;;;;;;5031126;27;90399;-49
2022/10/03 02:03:15;;;;;;;;;;;18.10;71.60;;;;;;5017500;27;91288;-51
2022/10/03 02:05:56;;;;;;;;;;;18.10;71.80;;;;;;5025428;27;89776;-51
2022/10/03 02:08:22;;;;;;;;;;;18.00;71.80;;;;;;5021822;27;89828;-48
2022/10/03 02:10:54;;;;;;;;;;;18.10;71.80;;;;;;5032029;27;89727;-49
2022/10/03 02:13:23;;;;;;;;;;;18.00;71.80;;;;;;5024321;27;94057;-48
2022/10/03 02:16:01;;;;;;;;;;;18.10;71.80;;;;;;5024594;27;89888;-52
2022/10/03 02:18:45;;;;;;;;;;;18.10;71.80;;;;;;5027337;27;91023;-49
2022/10/03 02:21:14;;;;;;;;;;;18.00;71.60;;;;;;5026194;27;90968;-52
2022/10/03 02:23:43;;;;;;;;;;;18.00;71.80;;;;;;5023423;27;90360;-48
2022/10/03 02:26:17;;;;;;;;;;;18.00;71.60;;;;;;5027054;27;89523;-47
2022/10/03 02:29:06;;;;;;;;;;;18.00;71.70;;;;;;5031827;27;89757;-47
2022/10/03 02:31:34;;;;;;;;;;;18.00;71.60;;;;;;5019130;27;91712;-48
2022/10/03 02:34:17;;;;;;;;;;;18.00;71.50;;;;;;5032890;27;90308;-50
2022/10/03 02:36:43;;;;;;;;;;;18.00;71.50;;;;;;5026687;27;89999;-51
2022/10/03 02:39:25;;;;;;;;;;;17.90;71.60;;;;;;5017230;27;94669;-50
2022/10/03 02:42:10;;;;;;;;;;;17.90;71.70;;;;;;5027823;27;93568;-52
2022/10/03 02:44:54;;;;;;;;;;;17.90;71.60;;;;;;5023528;27;91170;-53
2022/10/03 02:47:39;;;;;;;;;;;18.00;71.70;;;;;;5023115;27;90808;-51
2022/10/03 02:50:12;;;;;;;;;;;17.90;71.70;;;;;;5030603;27;90105;-56
2022/10/03 02:52:56;;;;;;;;;;;17.90;71.50;;;;;;5024030;27;91115;-52
2022/10/03 02:55:22;;;;;;;;;;;17.90;71.60;;;;;;5017005;27;89889;-50
2022/10/03 02:57:59;;;;;;;;;;;17.90;71.40;;;;;;5029310;27;89851;-49
2022/10/03 03:00:43;;;;;;;;;;;17.90;71.40;;;;;;5024837;27;92005;-46
2022/10/03 03:03:09;;;;;;;;;;;17.90;71.40;;;;;;5022394;27;90057;-50
2022/10/03 03:05:53;;;;;;;;;;;17.90;71.40;;;;;;5037530;27;95676;-48
2022/10/03 03:08:23;;;;;;;;;;;17.80;71.50;;;;;;5026944;27;90646;-49
2022/10/03 03:11:21;;;;;;;;;;;17.80;71.60;;;;;;5027277;27;89893;-49
2022/10/03 03:14:01;;;;;;;;;;;17.80;71.60;;;;;;4982997;27;91661;-49
2022/10/03 03:16:47;;;;;;;;;;;17.80;71.50;;;;;;5026993;27;92327;-47
2022/10/03 03:19:18;;;;;;;;;;;17.80;71.60;;;;;;5029303;27;90129;-51
2022/10/03 03:22:02;;;;;;;;;;;17.80;71.50;;;;;;5030237;27;90687;-51
2022/10/03 03:24:31;;;;;;;;;;;17.80;71.60;;;;;;5029349;27;89945;-47
2022/10/03 03:27:04;;;;;;;;;;;17.80;71.40;;;;;;5029548;27;93267;-47
2022/10/03 03:29:40;;;;;;;;;;;17.70;71.40;;;;;;5022383;27;91121;-49
2022/10/03 03:32:15;;;;;;;;;;;17.80;71.70;;;;;;5023917;27;89474;-48
2022/10/03 03:34:43;;;;;;;;;;;17.80;71.50;;;;;;5023964;27;91763;-50
2022/10/03 03:37:20;;;;;;;;;;;17.70;71.50;;;;;;5024273;27;90134;-51
2022/10/03 03:40:05;;;;;;;;;;;17.70;71.50;;;;;;5026081;27;90965;-49
2022/10/03 03:42:31;;;;;;;;;;;17.70;71.40;;;;;;5023726;27;91981;-47
2022/10/03 03:44:59;;;;;;;;;;;17.80;71.40;;;;;;5024984;27;91273;-51
2022/10/03 03:47:42;;;;;;;;;;;17.70;71.50;;;;;;5028795;27;90041;-52
2022/10/03 03:50:22;;;;;;;;;;;17.70;71.50;;;;;;5030055;27;89583;-52
2022/10/03 03:53:05;;;;;;;;;;;17.60;71.50;;;;;;5026938;27;89923;-49
2022/10/03 03:55:37;;;;;;;;;;;17.60;71.50;;;;;;5017704;27;91184;-49
2022/10/03 03:58:23;;;;;;;;;;;17.60;71.40;;;;;;5027924;27;91022;-52
2022/10/03 04:01:07;;;;;;;;;;;17.60;71.30;;;;;;5025584;27;90740;-49
2022/10/03 04:03:51;;;;;;;;;;;17.70;71.30;;;;;;5013138;27;89868;-52
2022/10/03 04:06:37;;;;;;;;;;;17.70;71.30;;;;;;5015821;27;91179;-49
2022/10/03 04:09:22;;;;;;;;;;;17.60;71.30;;;;;;5018609;27;90457;-48
2022/10/03 04:11:55;;;;;;;;;;;17.60;71.40;;;;;;5018982;27;90373;-50
2022/10/03 04:14:36;;;;;;;;;;;17.60;71.40;;;;;;5014654;27;90783;-50
2022/10/03 04:20:04;;;;;;;;;;;17.60;71.30;;;;;;5031242;27;89985;-49
2022/10/03 04:22:33;;;;;;;;;;;17.60;71.30;;;;;;5017693;27;90746;-52
2022/10/03 04:25:22;;;;;;;;;;;17.50;71.70;;;;;;5028963;27;89047;-47
2022/10/03 04:27:47;;;;;;;;;;;17.60;71.40;;;;;;5009342;27;91840;-52
2022/10/03 04:30:15;;;;;;;;;;;17.50;71.30;;;;;;5018449;27;91018;-46
2022/10/03 04:32:50;;;;;;;;;;;17.50;71.40;;;;;;5022830;27;91805;-52
2022/10/03 04:35:34;;;;;;;;;;;17.50;71.50;;;;;;5020999;27;94079;-49
2022/10/03 04:38:11;;;;;;;;;;;17.50;71.50;;;;;;5014477;27;90065;-53
2022/10/03 04:40:39;;;;;;;;;;;17.50;71.40;;;;;;5018096;27;92010;-52
2022/10/03 04:43:13;;;;;;;;;;;17.50;71.30;;;;;;5030616;27;89857;-51
2022/10/03 04:45:53;;;;;;;;;;;17.50;71.50;;;;;;5029292;27;92197;-50
2022/10/03 04:48:27;;;;;;;;;;;17.50;71.30;;;;;;5028406;27;91257;-53
2022/10/03 04:51:28;;;;;;;;;;;17.50;71.20;;;;;;5030716;27;89062;-52
2022/10/03 04:54:10;;;;;;;;;;;17.50;71.30;;;;;;4951039;28;90445;-50
2022/10/03 04:56:56;;;;;;;;;;;17.50;71.30;;;;;;5026527;27;90028;-48
2022/10/03 04:59:43;;;;;;;;;;;17.40;71.30;;;;;;5031999;27;91008;-46
2022/10/03 05:02:08;;;;;;;;;;;17.50;70.70;;;;;;5032922;27;90082;-55
2022/10/03 05:04:34;;;;;;;;;;;17.50;70.10;;;;;;5026453;27;89842;-48
2022/10/03 05:07:13;;;;;;;;;;;17.60;69.60;;;;;;5021473;27;89542;-51
2022/10/03 05:09:38;;;;;;;;;;;17.70;69.00;;;;;;5032970;27;90246;-48
2022/10/03 05:12:26;;;;;;;;;;;17.80;68.80;;;;;;5029874;27;89898;-47
2022/10/03 05:14:57;;;;;;;;;;;17.90;68.40;;;;;;5028146;27;90207;-49
2022/10/03 05:17:29;;;;;;;;;;;17.90;68.10;;;;;;5021672;27;89319;-51
2022/10/03 05:20:13;;;;;;;;;;;17.90;68.40;;;;;;5016739;27;89850;-49
2022/10/03 05:23:11;;;;;;;;;;;17.80;68.60;;;;;;5014070;27;97068;-50
2022/10/03 05:25:45;;;;;;;;;;;17.80;68.70;;;;;;4984243;27;92139;-48
2022/10/03 05:28:11;;;;;;;;;;;17.90;68.30;;;;;;5020343;27;95739;-53
2022/10/03 05:30:39;;;;;;;;;;;18.00;68.70;;;;;;5031347;27;90713;-51
2022/10/03 05:33:09;;;;;;;;;;;18.10;68.20;;;;;;5021000;27;90920;-52
2022/10/03 05:35:43;;;;;;;;;;;18.00;68.20;;;;;;5030493;27;90467;-56
2022/10/03 05:38:14;;;;;;;;;;;18.00;68.30;;;;;;5024139;27;90913;-50
2022/10/03 05:40:43;;;;;;;;;;;18.00;68.00;;;;;;5024040;27;89767;-50
2022/10/03 05:43:27;;;;;;;;;;;18.10;67.50;;;;;;5030979;27;89451;-51
2022/10/03 05:46:02;;;;;;;;;;;18.20;67.70;;;;;;5022339;27;89854;-52
2022/10/03 05:48:46;;;;;;;;;;;18.10;67.80;;;;;;5024432;27;90352;-52
2022/10/03 05:51:14;;;;;;;;;;;18.30;67.10;;;;;;5030459;27;92772;-49
2022/10/03 05:53:58;;;;;;;;;;;18.30;66.90;;;;;;5023268;27;92358;-46
2022/10/03 05:56:27;;;;;;;;;;;18.20;67.20;;;;;;5008183;27;92674;-51
2022/10/03 05:59:07;;;;;;;;;;;18.30;67.50;;;;;;5028800;27;90011;-53
2022/10/03 06:01:46;;;;;;;;;;;18.20;67.80;;;;;;5036374;27;92152;-52
2022/10/03 06:04:27;;;;;;;;;;;18.10;68.50;;;;;;5028717;27;94329;-51
2022/10/03 06:07:01;;;;;;;;;;;18.00;68.30;;;;;;5032946;27;90222;-47
2022/10/03 06:09:45;;;;;;;;;;;18.10;68.10;;;;;;5021129;27;89669;-50
2022/10/03 06:12:14;;;;;;;;;;;18.20;67.40;;;;;;5022169;27;90245;-52
2022/10/03 06:14:42;;;;;;;;;;;18.20;67.00;;;;;;5019476;27;90300;-47
2022/10/03 06:17:16;;;;;;;;;;;18.30;66.40;;;;;;5032486;27;90783;-58
2022/10/03 06:19:42;;;;;;;;;;;18.30;66.10;;;;;;5036112;27;91399;-51
2022/10/03 06:22:37;;;;;;;;;;;18.30;65.90;;;;;;5037412;27;92955;-49
2022/10/03 06:25:15;;;;;;;;;;;18.30;65.60;;;;;;5031641;27;91117;-51
2022/10/03 06:28:01;;;;;;;;;;;18.40;64.90;;;;;;5033941;27;89558;-51
2022/10/03 06:30:45;;;;;;;;;;;18.40;64.70;;;;;;5037422;27;90837;-50
2022/10/03 06:33:29;;;;;;;;;;;18.40;64.80;;;;;;5021107;27;90001;-52
2022/10/03 06:36:00;;;;;;;;;;;18.40;64.50;;;;;;5027110;27;91479;-50
2022/10/03 06:38:26;;;;;;;;;;;18.50;63.80;;;;;;5020244;27;90056;-51
2022/10/03 06:41:10;;;;;;;;;;;18.60;63.60;;;;;;5021581;27;90148;-48
2022/10/03 06:43:38;;;;;;;;;;;18.50;63.40;;;;;;5028441;27;92232;-51
2022/10/03 06:46:32;;;;;;;;;;;18.50;63.40;;;;;;5024365;27;90316;-50
2022/10/03 06:49:15;;;;;;;;;;;18.40;63.30;;;;;;5029361;27;92365;-49
2022/10/03 06:51:52;;;;;;;;;;;18.30;63.30;;;;;;5023073;27;89997;-51
2022/10/03 06:54:20;;;;;;;;;;;18.20;63.50;;;;;;5023490;27;91921;-53
2022/10/03 06:57:15;;;;;;;;;;;18.10;63.40;;;;;;5011772;27;92023;-55
2022/10/03 06:59:40;;;;;;;;;;;18.00;63.70;;;;;;4947390;27;89919;-48
2022/10/03 07:02:18;;;;;;;;;;;17.90;64.40;;;;;;5023927;27;89570;-51
2022/10/03 07:04:47;;;;;;;;;;;17.90;64.70;;;;;;5021996;27;94962;-51
2022/10/03 07:07:18;;;;;;;;;;;17.90;64.80;;;;;;5034779;27;89989;-50
2022/10/03 07:09:52;;;;;;;;;;;17.80;65.00;;;;;;5017905;27;93108;-51
2022/10/03 07:12:36;;;;;;;;;;;17.80;65.50;;;;;;5026216;27;91098;-48
2022/10/03 07:15:21;;;;;;;;;;;17.80;65.40;;;;;;5019209;27;94960;-52
2022/10/03 07:17:49;;;;;;;;;;;17.80;65.40;;;;;;5023997;27;89385;-51
2022/10/03 07:20:16;;;;;;;;;;;17.70;65.70;;;;;;5026358;27;90143;-48
2022/10/03 07:22:44;;;;;;;;;;;17.70;65.70;;;;;;5023136;27;89951;-52
2022/10/03 07:25:28;;;;;;;;;;;17.80;65.70;;;;;;5031063;27;91584;-47
2022/10/03 07:27:54;;;;;;;;;;;17.80;65.80;;;;;;5030530;27;89418;-52
2022/10/03 07:30:21;;;;;;;;;;;17.90;65.70;;;;;;5029492;27;89937;-52
2022/10/03 07:33:05;;;;;;;;;;;17.80;65.60;;;;;;5022038;27;90221;-52
2022/10/03 07:38:56;;;;;;;;;;;17.80;65.90;;;;;;5022682;27;93118;-52
2022/10/03 07:41:23;;;;;;;;;;;17.80;66.10;;;;;;4996151;27;90828;-52
2022/10/03 07:44:07;;;;;;;;;;;17.90;65.90;;;;;;5029772;27;92761;-52
2022/10/03 07:46:32;;;;;;;;;;;18.00;65.50;;;;;;5032406;27;91011;-50
2022/10/03 07:49:04;;;;;;;;;;;18.10;65.10;;;;;;5022162;27;90320;-49
2022/10/03 07:51:59;;;;;;;;;;;18.20;65.10;;;;;;5029365;27;89769;-51
2022/10/03 07:54:40;;;;;;;;;;;18.30;64.80;;;;;;5016115;27;92590;-49
2022/10/03 07:57:11;;;;;;;;;;;18.20;64.70;;;;;;5025556;27;90824;-51
2022/10/03 07:59:40;;;;;;;;;;;18.30;64.60;;;;;;5031826;27;90675;-49
2022/10/03 08:02:24;;;;;;;;;;;18.50;64.20;;;;;;5032325;27;90465;-51
2022/10/03 08:05:10;;;;;;;;;;;18.60;63.60;;;;;;5043291;27;97637;-50
2022/10/03 08:08:02;;;;;;;;;;;18.70;63.40;;;;;;5022758;27;90469;-52
2022/10/03 08:10:30;;;;;;;;;;;18.70;63.10;;;;;;5024880;27;90242;-51
2022/10/03 08:13:05;;;;;;;;;;;18.70;63.20;;;;;;5021501;27;94543;-50
2022/10/03 08:15:42;;;;;;;;;;;18.70;63.20;;;;;;5028153;27;89863;-52
2022/10/03 08:18:10;;;;;;;;;;;18.70;63.40;;;;;;5039167;27;89938;-48
2022/10/03 08:20:40;;;;;;;;;;;18.80;63.20;;;;;;5029707;27;92237;-50
2022/10/03 08:23:26;;;;;;;;;;;18.80;62.80;;;;;;5032492;27;89646;-53
2022/10/03 08:26:24;;;;;;;;;;;19.00;62.40;;;;;;5039150;27;89715;-49
2022/10/03 08:29:08;;;;;;;;;;;19.00;62.40;;;;;;5002798;27;91483;-50
2022/10/03 08:31:43;;;;;;;;;;;19.10;62.20;;;;;;5033443;27;91131;-49
2022/10/03 08:34:09;;;;;;;;;;;19.00;62.50;;;;;;5029604;27;90575;-52
2022/10/03 08:36:44;;;;;;;;;;;19.00;62.30;;;;;;5029664;27;89935;-47
2022/10/03 08:39:09;;;;;;;;;;;19.10;62.10;;;;;;5026659;27;90082;-50
2022/10/03 08:41:53;;;;;;;;;;;19.20;61.70;;;;;;5037532;27;89800;-51
2022/10/03 08:44:34;;;;;;;;;;;19.20;61.60;;;;;;5033414;27;89520;-50
2022/10/03 08:47:03;;;;;;;;;;;19.20;61.50;;;;;;5017679;27;89618;-51
2022/10/03 08:49:40;;;;;;;;;;;19.20;62.40;;;;;;5030289;27;90660;-51
2022/10/03 08:52:06;;;;;;;;;;;19.20;61.90;;;;;;5026040;27;89990;-49
2022/10/03 08:54:47;;;;;;;;;;;19.20;61.80;;;;;;5021624;27;90921;-53
2022/10/03 08:57:31;;;;;;;;;;;19.20;61.80;;;;;;5025805;27;89925;-51
2022/10/03 08:59:57;;;;;;;;;;;19.20;61.80;;;;;;5031487;27;90457;-50
2022/10/03 09:02:48;;;;;;;;;;;19.20;62.00;;;;;;5027617;27;89917;-49
2022/10/03 09:05:23;;;;;;;;;;;19.20;61.90;;;;;;4995434;27;94959;-47
2022/10/03 09:08:07;;;;;;;;;;;19.20;62.10;;;;;;5037680;27;89963;-48
2022/10/03 09:10:33;;;;;;;;;;;19.30;62.30;;;;;;5026543;27;89976;-48
2022/10/03 09:12:58;;;;;;;;;;;19.30;62.00;;;;;;5024892;27;90129;-53
2022/10/03 09:15:43;;;;;;;;;;;19.30;62.00;;;;;;5023084;27;90011;-48
2022/10/03 09:18:09;;;;;;;;;;;19.30;61.90;;;;;;5032251;27;91961;-50
2022/10/03 09:20:37;;;;;;;;;;;19.30;61.80;;;;;;5034989;27;92185;-51
2022/10/03 09:23:18;;;;;;;;;;;19.40;61.90;;;;;;5017855;27;90631;-50
2022/10/03 09:26:07;;;;;;;;;;;19.30;62.00;;;;;;5028970;27;89929;-48
2022/10/03 09:28:35;;;;;;;;;;;19.30;61.80;;;;;;5022024;27;89507;-48
2022/10/03 09:31:10;;;;;;;;;;;19.40;62.70;;;;;;5026954;27;89993;-51
2022/10/03 09:33:54;;;;;;;;;;;19.40;62.50;;;;;;5017746;27;90202;-49
2022/10/03 09:36:22;;;;;;;;;;;19.40;61.60;;;;;;5030540;27;92242;-48
2022/10/03 09:38:50;;;;;;;;;;;19.40;61.80;;;;;;5026358;27;89246;-49
2022/10/03 09:41:19;;;;;;;;;;;19.40;61.60;;;;;;5020733;27;89672;-49
2022/10/03 09:43:50;;;;;;;;;;;19.40;61.60;;;;;;5027881;27;97306;-50
2022/10/03 09:46:21;;;;;;;;;;;19.50;61.60;;;;;;5015266;27;94471;-51
2022/10/03 09:49:25;;;;;;;;;;;19.40;61.50;;;;;;5023401;27;91223;-47
2022/10/03 09:52:14;;;;;;;;;;;19.40;61.60;;;;;;4963030;28;94016;-49
2022/10/03 09:54:54;;;;;;;;;;;19.40;62.00;;;;;;4960403;28;91093;-47
2022/10/03 09:57:39;;;;;;;;;;;19.40;62.10;;;;;;5015012;27;89519;-50
2022/10/03 10:00:19;;;;;;;;;;;19.40;62.20;;;;;;5029597;27;90306;-46
2022/10/03 10:03:02;;;;;;;;;;;19.30;62.50;;;;;;5011681;27;91159;-52
2022/10/03 10:05:36;;;;;;;;;;;19.30;62.80;;;;;;5030079;27;89267;-50
2022/10/03 10:08:03;;;;;;;;;;;19.20;63.20;;;;;;5019485;27;91587;-48
2022/10/03 10:10:47;;;;;;;;;;;19.00;64.00;;;;;;5027371;27;90559;-50
2022/10/03 10:13:22;;;;;;;;;;;18.90;65.60;;;;;;5023258;27;91731;-52
2022/10/03 10:16:08;;;;;;;;;;;18.90;65.00;;;;;;5029185;27;91044;-52
2022/10/03 10:18:43;;;;;;;;;;;18.80;64.80;;;;;;5034417;27;90282;-46
2022/10/03 10:21:27;;;;;;;;;;;18.90;64.80;;;;;;5040794;27;90377;-53
2022/10/03 10:24:14;;;;;;;;;;;19.00;64.90;;;;;;5016766;27;90098;-46
2022/10/03 10:26:58;;;;;;;;;;;19.10;64.50;;;;;;5032610;27;90275;-49
2022/10/03 10:29:27;;;;;;;;;;;19.20;64.30;;;;;;5024209;27;90318;-52
2022/10/03 10:32:12;;;;;;;;;;;19.30;64.20;;;;;;5029049;27;89371;-51
2022/10/03 10:34:56;;;;;;;;;;;19.30;64.10;;;;;;5029953;27;90064;-49
2022/10/03 10:37:41;;;;;;;;;;;19.40;64.00;;;;;;5021013;27;90548;-46
2022/10/03 10:40:06;;;;;;;;;;;19.50;63.80;;;;;;5023993;27;90920;-46
2022/10/03 10:42:50;;;;;;;;;;;19.50;63.80;;;;;;5027810;27;90715;-48
2022/10/03 10:45:16;;;;;;;;;;;19.50;63.70;;;;;;5011203;27;92155;-50
2022/10/03 10:47:47;;;;;;;;;;;19.50;63.80;;;;;;5023630;27;89823;-47
2022/10/03 10:50:31;;;;;;;;;;;19.50;64.00;;;;;;5032062;27;90144;-50
2022/10/03 10:53:15;;;;;;;;;;;19.50;64.10;;;;;;5022001;27;89823;-47
2022/10/03 10:56:00;;;;;;;;;;;19.50;64.10;;;;;;5023005;27;90124;-49
2022/10/03 10:58:44;;;;;;;;;;;19.50;64.20;;;;;;5028685;27;90268;-49
2022/10/03 11:01:09;;;;;;;;;;;19.60;64.20;;;;;;5023557;27;92285;-49
2022/10/03 11:03:50;;;;;;;;;;;19.60;64.10;;;;;;5043407;27;90338;-49
2022/10/03 11:06:35;;;;;;;;;;;19.60;64.00;;;;;;5019088;27;93660;-49
2022/10/03 11:09:23;;;;;;;;;;;19.60;64.00;;;;;;5017554;27;93408;-49
2022/10/03 11:11:57;;;;;;;;;;;19.60;64.00;;;;;;5026158;27;91621;-49
2022/10/03 11:14:41;;;;;;;;;;;19.60;64.10;;;;;;5033856;27;89669;-48
2022/10/03 11:17:10;;;;;;;;;;;19.60;64.00;;;;;;5024659;27;89812;-49
2022/10/03 11:19:40;;;;;;;;;;;19.60;64.30;;;;;;5027861;27;92329;-49
2022/10/03 11:22:08;;;;;;;;;;;19.60;64.40;;;;;;5032843;27;89369;-48
2022/10/03 11:24:40;;;;;;;;;;;19.60;64.40;;;;;;5023153;27;88926;-47
2022/10/03 11:27:31;;;;;;;;;;;19.60;64.50;;;;;;5030866;27;94269;-52
2022/10/03 11:30:15;;;;;;;;;;;19.70;64.50;;;;;;5014543;27;89548;-49
2022/10/03 11:32:47;;;;;;;;;;;19.70;64.50;;;;;;5032535;27;90890;-48
2022/10/03 11:35:31;;;;;;;;;;;19.70;64.60;;;;;;5035116;27;89938;-49
2022/10/03 11:38:17;;;;;;;;;;;19.70;64.60;;;;;;5026475;27;91386;-50
2022/10/03 11:41:01;;;;;;;;;;;19.70;64.60;;;;;;5029238;27;89857;-49
2022/10/03 11:43:33;;;;;;;;;;;19.70;64.60;;;;;;5027673;27;90038;-47
2022/10/03 11:46:14;;;;;;;;;;;19.70;64.70;;;;;;5030046;27;93894;-47
2022/10/03 11:48:48;;;;;;;;;;;19.80;64.90;;;;;;5043923;27;89844;-50
2022/10/03 11:51:22;;;;;;;;;;;19.80;64.80;;;;;;5029115;27;90094;-48
2022/10/03 11:54:01;;;;;;;;;;;19.80;64.80;;;;;;5027656;27;92995;-48
2022/10/03 11:56:26;;;;;;;;;;;19.80;64.90;;;;;;5036083;27;90097;-51
2022/10/03 11:58:58;;;;;;;;;;;19.80;64.80;;;;;;5022782;27;91398;-48
2022/10/03 12:01:38;;;;;;;;;;;19.80;64.70;;;;;;5029494;27;90029;-50
2022/10/03 12:04:12;;;;;;;;;;;19.90;64.70;;;;;;5037087;27;91016;-46
2022/10/03 12:09:43;;;;;;;;;;;19.90;64.70;;;;;;5035755;27;90000;-50
2022/10/03 12:12:17;;;;;;;;;;;20.00;64.60;;;;;;5028327;27;89992;-49
2022/10/03 12:14:45;;;;;;;;;;;20.00;64.70;;;;;;5034133;27;89882;-48
2022/10/03 12:17:11;;;;;;;;;;;20.00;64.60;;;;;;5033855;27;89227;-49
2022/10/03 12:19:55;;;;;;;;;;;20.00;64.60;;;;;;5030966;27;90754;-49
2022/10/03 12:22:33;;;;;;;;;;;20.00;64.40;;;;;;5031239;27;90232;-52
2022/10/03 12:25:22;;;;;;;;;;;20.00;64.50;;;;;;5030891;27;91280;-49
2022/10/03 12:27:48;;;;;;;;;;;20.00;64.50;;;;;;5026023;27;92260;-50
2022/10/03 12:30:15;;;;;;;;;;;20.00;64.60;;;;;;5019801;27;91159;-48
2022/10/03 12:32:43;;;;;;;;;;;20.00;64.70;;;;;;5027303;27;97085;-49
2022/10/03 12:35:21;;;;;;;;;;;20.10;64.50;;;;;;5041507;27;89871;-50
2022/10/03 12:37:46;;;;;;;;;;;20.10;64.50;;;;;;5028380;27;91771;-50
2022/10/03 12:40:23;;;;;;;;;;;20.10;64.40;;;;;;5028432;27;90801;-48
2022/10/03 12:43:07;;;;;;;;;;;20.10;64.50;;;;;;5039141;27;89304;-47
2022/10/03 12:45:39;;;;;;;;;;;20.10;64.30;;;;;;5035607;27;89884;-46
2022/10/03 12:48:15;;;;;;;;;;;20.20;64.30;;;;;;5028901;27;89841;-51
2022/10/03 12:50:44;;;;;;;;;;;20.20;64.20;;;;;;5029297;27;90964;-52
2022/10/03 12:53:19;;;;;;;;;;;20.20;64.30;;;;;;5022462;27;89760;-49
2022/10/03 12:55:54;;;;;;;;;;;20.20;64.20;;;;;;5017234;27;90055;-49
2022/10/03 12:58:41;;;;;;;;;;;20.20;64.00;;;;;;5031505;27;89802;-51
2022/10/03 13:01:24;;;;;;;;;;;20.20;63.90;;;;;;5023308;27;94866;-48
2022/10/03 13:03:59;;;;;;;;;;;20.20;64.00;;;;;;5028360;27;93054;-49
2022/10/03 13:06:37;;;;;;;;;;;20.20;64.10;;;;;;5030527;27;89984;-49
2022/10/03 13:09:09;;;;;;;;;;;20.20;64.00;;;;;;5022852;27;88811;-51
2022/10/03 13:11:58;;;;;;;;;;;20.30;64.00;;;;;;5027961;27;90209;-47
2022/10/03 13:14:39;;;;;;;;;;;20.30;63.90;;;;;;4988217;27;91889;-49
2022/10/03 13:17:07;;;;;;;;;;;20.30;63.80;;;;;;5036527;27;90462;-47
2022/10/03 13:19:51;;;;;;;;;;;20.30;63.80;;;;;;5032943;27;89688;-52
2022/10/03 13:22:23;;;;;;;;;;;20.30;63.70;;;;;;5037253;27;90595;-51
2022/10/03 13:25:13;;;;;;;;;;;20.40;63.70;;;;;;5034423;27;91282;-51
2022/10/03 13:27:47;;;;;;;;;;;20.40;63.70;;;;;;5031694;27;90051;-49
2022/10/03 13:30:21;;;;;;;;;;;20.40;63.80;;;;;;5027995;27;89963;-50
2022/10/03 13:32:53;;;;;;;;;;;20.40;63.80;;;;;;5027263;27;91442;-52
2022/10/03 13:38:12;;;;;;;;;;;20.50;63.80;;;;;;5027779;27;92957;-52
2022/10/03 13:40:42;;;;;;;;;;;20.50;63.80;;;;;;5041131;27;89960;-52
2022/10/03 13:43:13;;;;;;;;;;;20.50;63.70;;;;;;5034307;27;94072;-53
2022/10/03 13:45:41;;;;;;;;;;;20.60;63.70;;;;;;5028975;27;91418;-50
2022/10/03 13:48:07;;;;;;;;;;;20.60;63.80;;;;;;5028460;27;90021;-48
2022/10/03 13:50:39;;;;;;;;;;;20.60;63.70;;;;;;5034214;27;89782;-49
2022/10/03 13:53:18;;;;;;;;;;;20.60;63.70;;;;;;5030517;27;91060;-49
2022/10/03 13:55:55;;;;;;;;;;;20.60;63.70;;;;;;5022902;27;93734;-51
2022/10/03 13:58:22;;;;;;;;;;;20.60;63.60;;;;;;5037238;27;91081;-49
2022/10/03 14:01:02;;;;;;;;;;;20.70;63.40;;;;;;5032646;27;89330;-51
2022/10/03 14:03:44;;;;;;;;;;;20.70;63.30;;;;;;5025315;27;90600;-50
2022/10/03 14:06:25;;;;;;;;;;;20.70;63.30;;;;;;5024506;27;90040;-52
2022/10/03 14:09:05;;;;;;;;;;;20.70;63.20;;;;;;5028248;27;90924;-53
2022/10/03 14:12:06;;;;;;;;;;;20.70;63.30;;;;;;5016655;27;90097;-49
2022/10/03 14:14:39;;;;;;;;;;;20.70;63.20;;;;;;4980999;28;93334;-52
2022/10/03 14:17:04;;;;;;;;;;;20.60;63.20;;;;;;5016155;27;89895;-53
2022/10/03 14:19:45;;;;;;;;;;;20.60;63.10;;;;;;5041786;27;89647;-52
2022/10/03 14:22:21;;;;;;;;;;;20.60;63.10;;;;;;5024112;27;92068;-46
2022/10/03 14:24:50;;;;;;;;;;;20.60;63.20;;;;;;5023826;27;90834;-49
2022/10/03 14:27:31;;;;;;;;;;;20.60;63.10;;;;;;5023076;27;89995;-47
2022/10/03 14:30:17;;;;;;;;;;;20.60;63.10;;;;;;5019624;27;90642;-49
2022/10/03 14:32:44;;;;;;;;;;;20.60;63.20;;;;;;5025557;27;89559;-50
2022/10/03 14:35:15;;;;;;;;;;;20.60;63.10;;;;;;5021366;27;91239;-51
2022/10/03 14:37:47;;;;;;;;;;;20.60;63.10;;;;;;5027747;27;91428;-48
2022/10/03 14:40:19;;;;;;;;;;;20.60;63.10;;;;;;5020646;27;89654;-49
2022/10/03 14:42:52;;;;;;;;;;;20.60;63.00;;;;;;5025286;27;89522;-51
2022/10/03 14:45:22;;;;;;;;;;;20.60;63.00;;;;;;5026448;27;90572;-50
2022/10/03 14:47:50;;;;;;;;;;;20.60;63.10;;;;;;5025622;27;90023;-52
2022/10/03 14:50:21;;;;;;;;;;;20.60;63.20;;;;;;5037123;27;89800;-46
2022/10/03 14:52:51;;;;;;;;;;;20.60;63.70;;;;;;5027064;27;89552;-48
2022/10/03 14:55:20;;;;;;;;;;;20.60;64.10;;;;;;5024173;27;95035;-49
2022/10/03 14:57:53;;;;;;;;;;;20.60;64.20;;;;;;5028538;27;89657;-49
2022/10/03 15:00:42;;;;;;;;;;;20.70;64.50;;;;;;5034175;27;93675;-52
2022/10/03 15:03:17;;;;;;;;;;;20.70;64.40;;;;;;5035983;27;95268;-51
2022/10/03 15:05:58;;;;;;;;;;;20.70;64.30;;;;;;5034576;27;90116;-49
2022/10/03 15:08:28;;;;;;;;;;;20.70;64.10;;;;;;5026411;27;89871;-51
2022/10/03 15:10:55;;;;;;;;;;;20.70;64.10;;;;;;5037984;27;89996;-50
2022/10/03 15:13:21;;;;;;;;;;;20.70;64.00;;;;;;5030804;27;90443;-49
2022/10/03 15:15:48;;;;;;;;;;;20.80;64.00;;;;;;5037896;27;89929;-49
2022/10/03 15:18:16;;;;;;;;;;;20.80;63.80;;;;;;5033259;27;92764;-48
2022/10/03 15:20:43;;;;;;;;;;;20.80;63.60;;;;;;5028130;27;91522;-50
2022/10/03 15:23:17;;;;;;;;;;;20.80;63.40;;;;;;5022337;27;93957;-47